createdAt,value
2023-04-27T00:01:42.217Z,95.97
2023-04-27T00:04:09.682Z,96.42
2023-04-27T00:06:37.136Z,96.38
2023-04-27T00:09:04.656Z,96.17
2023-04-27T00:11:31.902Z,96.05
2023-04-27T00:13:59.135Z,96.75
2023-04-27T00:16:26.531Z,96.73
2023-04-27T00:18:54.147Z,96.94
2023-04-27T00:21:21.180Z,96.91
2023-04-27T00:23:48.194Z,96.90
2023-04-27T00:26:15.179Z,96.76
2023-04-27T00:28:44.454Z,96.97
2023-04-27T00:31:11.407Z,96.59
2023-04-27T00:33:38.493Z,96.57
2023-04-27T00:36:06.152Z,97.27
2023-04-27T00:38:33.226Z,97.39
2023-04-27T00:41:07.238Z,97.06
2023-04-27T00:43:41.474Z,96.69
2023-04-27T00:46:08.882Z,96.59
2023-04-27T00:48:35.984Z,96.44
2023-04-27T00:51:02.960Z,96.90
2023-04-27T00:53:29.964Z,97.13
2023-04-27T00:55:58.537Z,97.54
2023-04-27T00:58:26.061Z,96.80
2023-04-27T01:00:53.077Z,96.75
2023-04-27T01:03:20.374Z,96.79
2023-04-27T01:05:47.454Z,97.12
2023-04-27T01:08:14.954Z,97.12
2023-04-27T01:10:42.443Z,97.10
2023-04-27T01:13:10.890Z,96.80
2023-04-27T01:15:38.548Z,97.00
2023-04-27T01:18:10.605Z,96.86
2023-04-27T01:20:39.114Z,97.10
2023-04-27T01:23:06.444Z,97.11
2023-04-27T01:25:33.463Z,97.46
2023-04-27T01:28:02.870Z,97.45
2023-04-27T01:30:30.503Z,97.56
2023-04-27T01:32:59.246Z,97.72
2023-04-27T01:35:28.227Z,98.17
2023-04-27T01:38:00.715Z,98.12
2023-04-27T01:40:27.777Z,98.20
2023-04-27T01:42:54.956Z,98.61
2023-04-27T01:45:22.079Z,98.79
2023-04-27T01:47:52.088Z,98.87
2023-04-27T01:50:20.511Z,98.48
2023-04-27T01:52:47.921Z,97.78
2023-04-27T01:55:14.954Z,98.01
2023-04-27T01:57:42.499Z,98.01
2023-04-27T02:00:10.022Z,98.03
2023-04-27T02:02:53.615Z,98.09
2023-04-27T02:05:22.966Z,98.18
2023-04-27T02:07:50.566Z,98.60
2023-04-27T02:10:17.552Z,98.85
2023-04-27T02:12:48.448Z,99.27
2023-04-27T02:15:16.020Z,99.36
2023-04-27T02:17:44.183Z,99.08
2023-04-27T02:20:13.296Z,99.06
2023-04-27T02:22:43.942Z,99.69
2023-04-27T02:25:14.326Z,99.82
2023-04-27T02:27:43.628Z,99.64
2023-04-27T02:30:11.919Z,99.20
2023-04-27T02:32:39.977Z,98.93
2023-04-27T02:35:07.958Z,99.24
2023-04-27T02:37:35.139Z,99.55
2023-04-27T02:40:02.268Z,99.76
2023-04-27T02:42:31.867Z,99.52
2023-04-27T02:44:59.038Z,100.00
2023-04-27T02:47:26.761Z,100.00
2023-04-27T02:49:53.800Z,100.00
2023-04-27T02:52:20.758Z,100.00
2023-04-27T02:54:47.806Z,100.00
2023-04-27T02:57:15.007Z,100.00
2023-04-27T02:59:42.034Z,100.00
2023-04-27T03:02:09.005Z,100.00
2023-04-27T03:04:36.770Z,100.00
2023-04-27T03:07:04.434Z,100.00
2023-04-27T03:09:31.543Z,100.00
2023-04-27T03:11:58.688Z,100.00
2023-04-27T03:14:27.410Z,99.77
2023-04-27T03:16:56.190Z,99.22
2023-04-27T03:19:23.765Z,98.77
2023-04-27T03:21:51.389Z,98.16
2023-04-27T03:24:18.380Z,98.17
2023-04-27T03:26:45.402Z,98.32
2023-04-27T03:29:12.553Z,98.02
2023-04-27T03:31:39.859Z,98.08
2023-04-27T03:34:06.800Z,97.57
2023-04-27T03:36:33.855Z,97.57
2023-04-27T03:39:00.833Z,97.58
2023-04-27T03:41:27.911Z,97.37
2023-04-27T03:43:54.933Z,96.53
2023-04-27T03:46:22.090Z,96.72
2023-04-27T03:48:49.832Z,96.35
2023-04-27T03:51:18.474Z,95.74
2023-04-27T03:53:46.800Z,95.12
2023-04-27T03:56:14.585Z,94.70
2023-04-27T03:58:41.537Z,94.19
2023-04-27T04:01:18.934Z,93.35
2023-04-27T04:03:48.310Z,92.64
2023-04-27T04:06:15.430Z,91.74
2023-04-27T04:08:42.382Z,90.54
2023-04-27T04:11:09.992Z,89.60
2023-04-27T04:13:37.477Z,89.05
2023-04-27T04:16:08.831Z,87.75
2023-04-27T04:18:36.229Z,86.57
2023-04-27T04:21:04.005Z,85.79
2023-04-27T04:23:32.991Z,84.77
2023-04-27T04:26:00.134Z,83.60
2023-04-27T04:28:31.350Z,82.97
2023-04-27T04:30:59.800Z,82.34
2023-04-27T04:33:27.198Z,82.12
2023-04-27T04:35:55.688Z,81.22
2023-04-27T04:38:23.971Z,80.92
2023-04-27T04:40:52.971Z,80.29
2023-04-27T04:43:20.051Z,79.89
2023-04-27T04:45:47.705Z,79.00
2023-04-27T04:48:16.594Z,78.76
2023-04-27T04:50:46.008Z,78.56
2023-04-27T04:53:13.814Z,78.00
2023-04-27T04:55:41.919Z,77.49
2023-04-27T04:58:09.634Z,76.56
2023-04-27T05:00:36.962Z,75.51
2023-04-27T05:03:04.065Z,74.36
2023-04-27T05:05:31.200Z,73.60
2023-04-27T05:07:58.220Z,72.74
2023-04-27T05:10:25.236Z,72.95
2023-04-27T05:12:52.143Z,72.14
2023-04-27T05:15:19.295Z,70.89
2023-04-27T05:17:46.503Z,70.65
2023-04-27T05:20:13.713Z,70.54
2023-04-27T05:22:41.158Z,69.77
2023-04-27T05:25:08.620Z,68.50
2023-04-27T05:27:35.790Z,67.93
2023-04-27T05:30:03.367Z,67.42
2023-04-27T05:32:33.885Z,66.48
2023-04-27T05:35:01.010Z,65.99
2023-04-27T05:37:28.356Z,65.83
2023-04-27T05:39:55.303Z,64.49
2023-04-27T05:42:22.271Z,64.16
2023-04-27T05:44:49.370Z,63.34
2023-04-27T05:47:16.505Z,62.52
2023-04-27T05:49:43.775Z,62.39
2023-04-27T05:52:10.826Z,61.44
2023-04-27T05:54:37.923Z,60.78
2023-04-27T05:57:04.884Z,60.46
2023-04-27T05:59:31.836Z,59.96
2023-04-27T06:01:58.998Z,59.81
2023-04-27T06:04:26.690Z,59.24
2023-04-27T06:06:53.839Z,58.11
2023-04-27T06:09:20.872Z,56.70
2023-04-27T06:11:47.959Z,55.43
2023-04-27T06:14:15.153Z,54.95
2023-04-27T06:16:42.268Z,55.16
2023-04-27T06:19:09.586Z,54.99
2023-04-27T06:21:36.730Z,55.12
2023-04-27T06:24:03.952Z,55.19
2023-04-27T06:26:31.226Z,54.84
2023-04-27T06:28:58.293Z,54.11
2023-04-27T06:31:26.444Z,54.22
2023-04-27T06:33:53.886Z,55.35
2023-04-27T06:36:21.235Z,55.36
2023-04-27T06:38:48.276Z,54.66
2023-04-27T06:41:15.321Z,53.66
2023-04-27T06:43:42.279Z,54.07
2023-04-27T06:46:09.241Z,53.87
2023-04-27T06:48:36.519Z,53.30
2023-04-27T06:51:03.671Z,53.26
2023-04-27T06:53:31.544Z,52.68
2023-04-27T06:55:58.603Z,53.17
2023-04-27T06:58:25.729Z,52.83
2023-04-27T07:00:52.974Z,51.93
2023-04-27T07:03:21.345Z,50.12
2023-04-27T07:05:48.463Z,49.38
2023-04-27T07:08:15.373Z,48.19
2023-04-27T07:10:42.344Z,46.87
2023-04-27T07:13:09.814Z,46.42
2023-04-27T07:15:37.493Z,45.58
2023-04-27T07:18:04.599Z,45.54
2023-04-27T07:20:31.985Z,44.67
2023-04-27T07:22:58.887Z,44.06
2023-04-27T07:25:25.961Z,43.72
2023-04-27T07:27:53.033Z,43.93
2023-04-27T07:30:20.199Z,43.24
2023-04-27T07:32:48.324Z,43.26
2023-04-27T07:35:15.532Z,42.66
2023-04-27T07:37:44.201Z,43.18
2023-04-27T07:40:16.421Z,41.94
2023-04-27T07:42:43.728Z,42.31
2023-04-27T07:45:10.866Z,41.37
2023-04-27T07:47:39.119Z,41.24
2023-04-27T07:50:10.037Z,40.73
2023-04-27T07:52:37.385Z,40.69
2023-04-27T07:55:04.770Z,39.71
2023-04-27T07:57:32.131Z,40.38
2023-04-27T07:59:59.305Z,40.37
2023-04-27T08:02:30.455Z,39.97
2023-04-27T08:04:57.875Z,39.39
2023-04-27T08:07:25.333Z,40.19
2023-04-27T08:09:53.292Z,40.59
2023-04-27T08:12:20.334Z,40.06
2023-04-27T08:14:47.426Z,40.03
2023-04-27T08:17:14.626Z,39.93
2023-04-27T08:19:41.575Z,39.92
2023-04-27T08:22:08.678Z,40.34
2023-04-27T08:24:36.295Z,40.93
2023-04-27T08:27:06.306Z,39.71
2023-04-27T08:29:33.547Z,39.78
2023-04-27T08:32:01.839Z,39.31
2023-04-27T08:34:29.179Z,39.54
2023-04-27T08:36:57.032Z,39.56
2023-04-27T08:39:24.528Z,39.64
2023-04-27T08:41:51.748Z,40.59
2023-04-27T08:44:18.912Z,40.70
2023-04-27T08:46:46.095Z,39.29
2023-04-27T08:49:15.199Z,39.26
2023-04-27T08:51:43.807Z,38.73
2023-04-27T08:54:10.753Z,38.33
2023-04-27T08:56:37.983Z,38.94
2023-04-27T08:59:14.103Z,39.85
2023-04-27T09:01:46.244Z,40.03
2023-04-27T09:04:13.596Z,38.68
2023-04-27T09:06:40.705Z,38.41
2023-04-27T09:09:07.872Z,38.82
2023-04-27T09:11:38.782Z,40.37
2023-04-27T09:14:22.424Z,39.18
2023-04-27T09:16:57.770Z,39.21
2023-04-27T09:19:29.359Z,40.30
2023-04-27T09:22:10.873Z,41.73
2023-04-27T09:24:37.982Z,42.23
2023-04-27T09:27:06.354Z,41.71
2023-04-27T09:29:37.024Z,40.45
2023-04-27T09:32:21.023Z,39.56
2023-04-27T09:34:48.426Z,41.20
2023-04-27T09:37:15.673Z,40.73
2023-04-27T09:39:42.733Z,41.91
2023-04-27T09:42:09.891Z,42.64
2023-04-27T09:44:37.152Z,42.19
2023-04-27T09:47:04.950Z,41.65
2023-04-27T09:49:31.939Z,41.29
2023-04-27T09:51:59.106Z,41.45
2023-04-27T09:54:27.553Z,41.00
2023-04-27T09:57:09.835Z,40.54
2023-04-27T09:59:42.054Z,39.53
2023-04-27T10:02:23.651Z,38.88
2023-04-27T10:05:16.151Z,39.37
2023-04-27T10:07:44.182Z,40.76
2023-04-27T10:10:17.310Z,40.67
2023-04-27T10:12:44.520Z,40.08
2023-04-27T10:15:13.424Z,40.03
2023-04-27T10:17:50.070Z,39.72
2023-04-27T10:20:17.925Z,40.30
2023-04-27T10:22:50.186Z,40.21
2023-04-27T10:25:26.607Z,40.20
2023-04-27T10:27:55.355Z,40.49
2023-04-27T10:30:27.287Z,40.79
2023-04-27T10:32:58.551Z,39.69
2023-04-27T10:35:39.523Z,39.62
2023-04-27T10:38:16.446Z,39.90
2023-04-27T10:40:54.084Z,39.34
2023-04-27T10:43:27.310Z,37.99
2023-04-27T10:45:54.353Z,37.18
2023-04-27T10:48:21.872Z,37.91
2023-04-27T10:50:51.835Z,36.91
2023-04-27T10:53:18.846Z,38.04
2023-04-27T10:55:46.958Z,37.34
2023-04-27T10:58:14.128Z,36.90
2023-04-27T11:00:44.384Z,37.08
2023-04-27T11:03:20.994Z,37.69
2023-04-27T11:05:49.234Z,38.32
2023-04-27T11:08:17.671Z,38.61
2023-04-27T11:10:46.208Z,39.05
2023-04-27T11:13:15.032Z,37.70
2023-04-27T11:15:55.722Z,38.66
2023-04-27T11:18:24.302Z,39.69
2023-04-27T11:20:52.627Z,40.91
2023-04-27T11:23:37.126Z,41.97
2023-04-27T11:26:17.086Z,42.68
2023-04-27T11:28:44.867Z,42.11
2023-04-27T11:31:12.117Z,42.15
2023-04-27T11:33:41.972Z,42.43
2023-04-27T11:36:19.213Z,43.42
2023-04-27T11:38:46.411Z,43.64
2023-04-27T11:41:13.411Z,44.30
2023-04-27T11:43:46.263Z,44.77
2023-04-27T11:46:13.526Z,44.99
2023-04-27T11:48:40.890Z,45.93
2023-04-27T11:51:10.353Z,45.63
2023-04-27T11:53:38.540Z,45.59
2023-04-27T11:56:10.698Z,46.39
2023-04-27T11:58:38.570Z,47.43
2023-04-27T12:01:06.197Z,47.94
2023-04-27T12:03:33.568Z,48.68
2023-04-27T12:06:15.879Z,49.52
2023-04-27T12:08:43.631Z,48.91
2023-04-27T12:11:10.588Z,48.54
2023-04-27T12:13:37.664Z,48.29
2023-04-27T12:16:05.228Z,47.20
2023-04-27T12:18:32.356Z,46.38
2023-04-27T12:21:02.892Z,44.89
2023-04-27T12:23:31.040Z,43.67
2023-04-27T12:25:58.108Z,42.55
2023-04-27T12:28:25.108Z,41.88
2023-04-27T12:30:52.216Z,41.96
2023-04-27T12:33:19.283Z,41.58
2023-04-27T12:35:46.466Z,41.60
2023-04-27T12:38:13.504Z,40.60
2023-04-27T12:40:40.501Z,40.16
2023-04-27T12:43:08.689Z,40.02
2023-04-27T12:45:35.625Z,40.67
2023-04-27T12:48:04.236Z,40.32
2023-04-27T12:50:37.860Z,40.54
2023-04-27T12:53:05.140Z,40.30
2023-04-27T12:55:34.536Z,39.75
2023-04-27T12:58:02.630Z,39.59
2023-04-27T13:00:30.101Z,39.17
2023-04-27T13:02:57.566Z,39.68
2023-04-27T13:05:24.842Z,39.42
2023-04-27T13:07:52.371Z,38.32
2023-04-27T13:10:19.366Z,38.37
2023-04-27T13:12:46.825Z,38.75
2023-04-27T13:15:14.092Z,39.43
2023-04-27T13:17:43.132Z,39.75
2023-04-27T13:20:11.310Z,39.46
2023-04-27T13:22:40.654Z,39.58
2023-04-27T13:25:09.556Z,39.14
2023-04-27T13:27:36.851Z,39.72
2023-04-27T13:30:05.360Z,40.12
2023-04-27T13:32:33.000Z,40.74
2023-04-27T13:35:00.141Z,40.63
2023-04-27T13:37:27.475Z,39.56
2023-04-27T13:39:54.510Z,39.63
2023-04-27T13:42:21.890Z,40.45
2023-04-27T13:44:49.065Z,40.25
2023-04-27T13:47:16.090Z,40.17
2023-04-27T13:49:43.224Z,40.31
2023-04-27T13:52:10.208Z,40.01
2023-04-27T13:54:37.686Z,40.49
2023-04-27T13:57:04.723Z,41.09
2023-04-27T13:59:32.090Z,40.28
2023-04-27T14:01:59.010Z,40.27
2023-04-27T14:04:26.283Z,40.21
2023-04-27T14:06:53.371Z,39.96
2023-04-27T14:09:20.554Z,40.81
2023-04-27T14:11:56.442Z,41.21
2023-04-27T14:14:24.380Z,41.10
2023-04-27T14:16:52.333Z,41.31
2023-04-27T14:19:20.687Z,41.26
2023-04-27T14:21:49.178Z,41.95
2023-04-27T14:24:16.584Z,42.20
2023-04-27T14:26:44.336Z,42.34
2023-04-27T14:29:11.877Z,42.15
2023-04-27T14:31:39.634Z,42.07
2023-04-27T14:34:07.408Z,41.94
2023-04-27T14:36:34.469Z,42.08
2023-04-27T14:39:01.538Z,42.66
2023-04-27T14:41:28.867Z,42.22
2023-04-27T14:43:55.998Z,42.67
2023-04-27T14:46:23.192Z,42.62
2023-04-27T14:48:51.335Z,42.59
2023-04-27T14:51:18.517Z,42.67
2023-04-27T14:53:45.803Z,42.96
2023-04-27T14:56:12.726Z,43.08
2023-04-27T14:58:39.766Z,43.19
2023-04-27T15:01:07.591Z,43.50
2023-04-27T15:03:34.834Z,43.90
2023-04-27T15:06:02.140Z,44.17
2023-04-27T15:08:31.312Z,43.72
2023-04-27T15:11:00.173Z,44.07
2023-04-27T15:13:27.604Z,44.09
2023-04-27T15:15:58.685Z,43.79
2023-04-27T15:18:25.772Z,43.94
2023-04-27T15:20:56.554Z,43.92
2023-04-27T15:23:24.065Z,43.96
2023-04-27T15:25:53.900Z,44.16
2023-04-27T15:28:20.949Z,44.39
2023-04-27T15:30:58.210Z,44.75
2023-04-27T15:33:25.763Z,45.41
2023-04-27T15:35:52.860Z,45.68
2023-04-27T15:38:19.986Z,46.13
2023-04-27T15:40:46.967Z,45.77
2023-04-27T15:43:15.118Z,46.07
2023-04-27T15:45:42.487Z,46.29
2023-04-27T15:48:11.401Z,46.99
2023-04-27T15:50:38.507Z,47.99
2023-04-27T15:53:05.516Z,47.90
2023-04-27T15:55:32.718Z,47.64
2023-04-27T15:57:59.695Z,48.80
2023-04-27T16:00:26.834Z,48.13
2023-04-27T16:02:54.201Z,48.40
2023-04-27T16:05:21.561Z,49.06
2023-04-27T16:07:48.507Z,49.87
2023-04-27T16:10:15.566Z,49.79
2023-04-27T16:12:42.490Z,49.83
2023-04-27T16:15:12.800Z,49.89
2023-04-27T16:17:39.847Z,50.85
2023-04-27T16:20:07.488Z,52.21
2023-04-27T16:22:35.513Z,53.40
2023-04-27T16:25:06.832Z,54.31
2023-04-27T16:27:34.377Z,56.58
2023-04-27T16:30:01.551Z,58.15
2023-04-27T16:32:34.542Z,59.45
2023-04-27T16:35:02.498Z,60.36
2023-04-27T16:37:31.691Z,61.30
2023-04-27T16:40:01.723Z,62.66
2023-04-27T16:42:31.179Z,63.72
2023-04-27T16:44:58.096Z,64.68
2023-04-27T16:47:25.095Z,65.62
2023-04-27T16:49:52.158Z,63.75
2023-04-27T16:52:19.983Z,62.29
2023-04-27T16:54:47.107Z,61.75
2023-04-27T16:57:14.366Z,62.66
2023-04-27T16:59:41.567Z,62.38
2023-04-27T17:02:23.010Z,61.43
2023-04-27T17:04:51.369Z,60.44
2023-04-27T17:07:18.605Z,59.09
2023-04-27T17:09:45.794Z,58.15
2023-04-27T17:12:14.666Z,57.88
2023-04-27T17:14:42.697Z,57.16
2023-04-27T17:17:10.573Z,57.04
2023-04-27T17:19:37.792Z,56.73
2023-04-27T17:22:04.932Z,56.75
2023-04-27T17:24:32.126Z,56.95
2023-04-27T17:26:59.039Z,56.80
2023-04-27T17:29:26.195Z,56.62
2023-04-27T17:31:53.276Z,56.95
2023-04-27T17:34:20.994Z,56.83
2023-04-27T17:36:48.175Z,56.86
2023-04-27T17:39:15.434Z,57.19
2023-04-27T17:41:42.630Z,57.23
2023-04-27T17:44:12.030Z,57.17
2023-04-27T17:46:39.168Z,57.63
2023-04-27T17:49:06.374Z,57.42
2023-04-27T17:51:33.864Z,57.40
2023-04-27T17:54:00.897Z,57.65
2023-04-27T17:56:27.900Z,57.77
2023-04-27T17:58:54.976Z,58.02
2023-04-27T18:01:22.019Z,58.13
2023-04-27T18:03:49.884Z,58.27
2023-04-27T18:06:19.461Z,58.25
2023-04-27T18:08:46.450Z,58.70
2023-04-27T18:11:13.532Z,58.83
2023-04-27T18:13:40.528Z,59.35
2023-04-27T18:16:07.672Z,59.57
2023-04-27T18:18:34.785Z,59.96
2023-04-27T18:21:01.859Z,60.05
2023-04-27T18:23:29.007Z,60.25
2023-04-27T18:26:00.034Z,60.69
2023-04-27T18:28:26.999Z,60.72
2023-04-27T18:30:54.107Z,61.03
2023-04-27T18:33:21.324Z,61.03
2023-04-27T18:35:48.541Z,61.54
2023-04-27T18:38:15.721Z,61.51
2023-04-27T18:40:42.744Z,61.88
2023-04-27T18:43:10.010Z,62.10
2023-04-27T18:45:37.333Z,62.19
2023-04-27T18:48:04.598Z,62.37
2023-04-27T18:50:31.747Z,62.54
2023-04-27T18:52:59.054Z,62.69
2023-04-27T18:55:26.181Z,62.84
2023-04-27T18:57:53.209Z,63.03
2023-04-27T19:00:20.348Z,63.16
2023-04-27T19:02:48.060Z,63.41
2023-04-27T19:05:16.042Z,63.40
2023-04-27T19:07:43.077Z,63.81
2023-04-27T19:10:11.012Z,64.04
2023-04-27T19:12:38.389Z,64.18
2023-04-27T19:15:05.826Z,64.48
2023-04-27T19:17:33.209Z,64.56
2023-04-27T19:20:00.678Z,64.75
2023-04-27T19:22:29.343Z,64.80
2023-04-27T19:24:56.407Z,64.74
2023-04-27T19:27:23.345Z,64.98
2023-04-27T19:29:57.328Z,65.10
2023-04-27T19:32:27.826Z,65.35
2023-04-27T19:34:56.190Z,65.36
2023-04-27T19:37:24.055Z,65.71
2023-04-27T19:39:51.050Z,66.04
2023-04-27T19:42:18.156Z,66.40
2023-04-27T19:44:45.127Z,66.53
2023-04-27T19:47:12.152Z,66.73
2023-04-27T19:49:39.265Z,66.80
2023-04-27T19:52:07.515Z,67.02
2023-04-27T19:54:36.211Z,66.82
2023-04-27T19:57:04.034Z,66.81
2023-04-27T19:59:31.080Z,66.94
2023-04-27T20:01:58.142Z,67.05
2023-04-27T20:04:25.372Z,67.10
2023-04-27T20:06:53.094Z,67.11
2023-04-27T20:09:20.160Z,67.20
2023-04-27T20:11:47.193Z,67.07
2023-04-27T20:14:14.586Z,67.14
2023-04-27T20:16:41.962Z,67.34
2023-04-27T20:19:10.825Z,67.54
2023-04-27T20:21:38.428Z,67.67
2023-04-27T20:24:05.614Z,67.62
2023-04-27T20:26:32.606Z,67.48
2023-04-27T20:28:59.767Z,67.61
2023-04-27T20:31:26.889Z,67.93
2023-04-27T20:33:54.444Z,67.82
2023-04-27T20:36:23.200Z,68.14
2023-04-27T20:38:50.492Z,68.13
2023-04-27T20:41:17.652Z,68.24
2023-04-27T20:43:45.607Z,68.17
2023-04-27T20:46:12.970Z,68.57
2023-04-27T20:48:40.126Z,68.58
2023-04-27T20:51:07.249Z,68.96
2023-04-27T20:53:34.358Z,69.04
2023-04-27T20:56:01.327Z,69.02
2023-04-27T20:58:28.553Z,69.25
2023-04-27T21:00:55.661Z,69.51
2023-04-27T21:03:22.877Z,69.72
2023-04-27T21:05:50.236Z,69.76
2023-04-27T21:08:17.292Z,69.89
2023-04-27T21:10:44.449Z,70.05
2023-04-27T21:13:11.630Z,70.30
2023-04-27T21:15:38.699Z,70.65
2023-04-27T21:18:07.842Z,70.77
2023-04-27T21:20:39.522Z,70.99
2023-04-27T21:23:06.559Z,71.19
2023-04-27T21:25:34.897Z,71.32
2023-04-27T21:28:01.937Z,71.72
2023-04-27T21:30:30.508Z,71.77
2023-04-27T21:32:57.565Z,72.11
2023-04-27T21:35:24.576Z,72.43
2023-04-27T21:37:51.616Z,72.56
2023-04-27T21:40:18.817Z,72.86
2023-04-27T21:42:47.071Z,72.69
2023-04-27T21:45:14.173Z,72.84
2023-04-27T21:47:41.331Z,73.26
2023-04-27T21:50:08.998Z,73.40
2023-04-27T21:52:36.061Z,73.26
2023-04-27T21:55:03.275Z,73.62
2023-04-27T21:57:33.130Z,73.75
2023-04-27T22:00:00.260Z,73.84
2023-04-27T22:02:29.518Z,74.00
2023-04-27T22:04:57.767Z,74.12
2023-04-27T22:07:26.698Z,74.61
2023-04-27T22:09:53.602Z,74.90
2023-04-27T22:12:20.563Z,74.92
2023-04-27T22:14:47.499Z,75.14
2023-04-27T22:17:15.226Z,75.18
2023-04-27T22:19:42.318Z,75.05
2023-04-27T22:22:10.446Z,75.23
2023-04-27T22:24:37.450Z,75.54
2023-04-27T22:27:04.437Z,75.72
2023-04-27T22:29:31.454Z,76.21
2023-04-27T22:31:58.583Z,76.29
2023-04-27T22:34:26.300Z,76.63
2023-04-27T22:36:53.569Z,76.96
2023-04-27T22:39:20.744Z,77.22
2023-04-27T22:41:47.727Z,77.57
2023-04-27T22:44:14.964Z,77.89
2023-04-27T22:46:45.055Z,78.28
2023-04-27T22:49:12.119Z,78.40
2023-04-27T22:51:39.214Z,78.71
2023-04-27T22:54:06.295Z,78.87
2023-04-27T22:56:33.695Z,78.97
2023-04-27T22:59:00.710Z,79.06
2023-04-27T23:01:27.731Z,79.19
2023-04-27T23:03:54.914Z,79.33
2023-04-27T23:06:22.234Z,79.55
2023-04-27T23:08:49.699Z,80.06
2023-04-27T23:11:19.235Z,80.42
2023-04-27T23:13:50.729Z,80.87
2023-04-27T23:16:17.969Z,81.22
2023-04-27T23:18:45.142Z,81.40
2023-04-27T23:21:12.369Z,81.56
2023-04-27T23:23:39.355Z,81.68
2023-04-27T23:26:16.412Z,82.06
2023-04-27T23:28:43.370Z,82.22
2023-04-27T23:31:10.807Z,82.55
2023-04-27T23:33:37.807Z,82.84
2023-04-27T23:36:05.207Z,83.06
2023-04-27T23:38:32.272Z,83.41
2023-04-27T23:40:59.217Z,83.80
2023-04-27T23:43:27.534Z,84.05
2023-04-27T23:45:54.591Z,84.25
2023-04-27T23:48:21.761Z,84.28
2023-04-27T23:50:48.838Z,84.21
2023-04-27T23:53:15.848Z,84.44
2023-04-27T23:55:42.860Z,84.81
2023-04-27T23:58:09.830Z,84.85
